Time;durP1;ratioP1;P1;durP2;ratioP2;P2;SDS_P1;SDS_P2;PMS_P1;PMS_P2;Temp;Humidity;BMP_temperature;BMP_pressure;BME280_temperature;BME280_humidity;BME280_pressure;Samples;Min_cycle;Max_cycle;Signal;HPM_P1;HPM_P2
2023/04/13 00:03:10;;;;;;;0.27;0.20;;;;;;;4.84;53.30;98712.09;20964272;28;20646;-84
2023/04/13 00:13:14;;;;;;;1.80;0.20;;;;;;;4.88;52.47;98701.06;20942359;28;20222;-78
2023/04/13 00:23:16;;;;;;;1.13;0.30;;;;;;;4.63;52.44;98693.72;20974384;28;20250;-78
2023/04/13 00:33:19;;;;;;;1.40;0.20;;;;;;;4.52;53.77;98676.53;21024657;28;20245;-84
2023/04/13 00:43:21;;;;;;;0.10;0.10;;;;;;;4.50;52.74;98673.28;20977363;28;20505;-84
2023/04/13 00:53:23;;;;;;;0.70;0.10;;;;;;;4.93;51.38;98667.25;21007574;28;20219;-76
2023/04/13 01:03:26;;;;;;;1.17;0.30;;;;;;;4.30;55.51;98671.31;21030128;28;20194;-76
2023/04/13 01:13:34;;;;;;;1.70;0.20;;;;;;;4.45;58.15;98668.72;20990343;28;20214;-76
2023/04/13 01:23:56;;;;;;;0.70;0.30;;;;;;;4.73;57.47;98656.97;21002075;28;20280;-76
2023/04/13 01:34:00;;;;;;;2.83;0.20;;;;;;;4.06;58.91;98652.41;21005874;28;20211;-87
2023/04/13 01:44:02;;;;;;;2.93;0.30;;;;;;;4.09;60.33;98651.75;20995203;28;20199;-75
2023/04/13 01:54:16;;;;;;;0.70;0.10;;;;;;;4.23;59.05;98649.53;21008936;28;20276;-75
2023/04/13 02:04:21;;;;;;;2.43;0.20;;;;;;;4.47;58.05;98651.63;21033706;28;20202;-76
2023/04/13 02:14:26;;;;;;;1.30;0.20;;;;;;;4.61;58.31;98642.94;21037706;28;20279;-77
2023/04/13 02:24:29;;;;;;;0.90;0.10;;;;;;;4.34;58.97;98644.34;20989055;28;20227;-77
2023/04/13 02:34:32;;;;;;;1.87;0.20;;;;;;;5.03;58.23;98633.25;20929096;28;20609;-78
2023/04/13 02:44:35;;;;;;;1.33;0.40;;;;;;;4.49;58.26;98624.16;20913331;28;20461;-77
2023/04/13 02:54:37;;;;;;;0.17;0.10;;;;;;;4.53;57.10;98623.09;20926958;28;20215;-84
2023/04/13 03:04:39;;;;;;;1.27;0.10;;;;;;;4.70;56.84;98627.72;20902210;28;20196;-77
2023/04/13 03:14:42;;;;;;;1.07;0.20;;;;;;;4.26;58.67;98634.84;20892494;28;20215;-77
2023/04/13 03:24:45;;;;;;;0.97;0.10;;;;;;;4.39;58.15;98644.94;20922367;28;20300;-79
2023/04/13 03:34:54;;;;;;;0.87;0.17;;;;;;;4.32;58.73;98661.44;20908676;28;20231;-84
2023/04/13 03:44:56;;;;;;;1.93;0.23;;;;;;;4.35;60.46;98652.38;20898673;28;20250;-86
2023/04/13 03:54:59;;;;;;;2.47;0.27;;;;;;;4.53;60.58;98656.63;20929977;28;20215;-76
2023/04/13 04:05:05;;;;;;;0.43;0.10;;;;;;;4.03;61.14;98656.69;20908050;28;20249;-77
2023/04/13 04:15:09;;;;;;;0.70;0.20;;;;;;;4.23;59.58;98671.88;20895109;28;20485;-77
2023/04/13 04:25:20;;;;;;;1.30;0.20;;;;;;;4.68;58.94;98685.94;20888034;28;20293;-86
2023/04/13 04:35:31;;;;;;;0.93;0.20;;;;;;;5.02;58.06;98707.13;20876083;28;20219;-85
2023/04/13 04:45:35;;;;;;;1.00;0.30;;;;;;;4.77;58.83;98736.16;20891423;28;20196;-78
2023/04/13 04:55:38;;;;;;;1.50;0.30;;;;;;;4.58;61.21;98753.44;20905620;28;20512;-87
2023/04/13 05:05:44;;;;;;;1.37;0.37;;;;;;;4.95;61.06;98769.22;20886764;28;20258;-83
2023/04/13 05:15:53;;;;;;;1.07;0.30;;;;;;;4.59;62.57;98792.22;20880443;28;20269;-78
2023/04/13 05:25:55;;;;;;;0.60;0.50;;;;;;;5.31;60.51;98804.91;20932541;28;20581;-85
2023/04/13 05:36:00;;;;;;;0.60;0.40;;;;;;;4.84;61.98;98818.34;20986533;28;20211;-83
2023/04/13 05:46:02;;;;;;;1.13;0.70;;;;;;;5.11;60.93;98839.34;20967760;28;20689;-77
2023/04/13 05:56:06;;;;;;;1.80;0.40;;;;;;;4.51;61.75;98843.38;20968357;28;20222;-77
2023/04/13 06:06:11;;;;;;;1.13;0.70;;;;;;;4.94;61.41;98856.25;20947948;28;20256;-77
2023/04/13 06:16:14;;;;;;;1.77;0.50;;;;;;;5.06;60.76;98878.69;20936221;28;20282;-77
2023/04/13 06:26:18;;;;;;;3.40;0.40;;;;;;;5.19;60.73;98885.19;20976131;28;20599;-77
2023/04/13 06:36:26;;;;;;;2.47;0.40;;;;;;;5.17;59.40;98899.50;20930055;28;20250;-76
2023/04/13 06:46:30;;;;;;;1.37;0.53;;;;;;;5.33;59.12;98902.50;20962427;28;20202;-77
2023/04/13 06:56:37;;;;;;;2.80;0.50;;;;;;;5.64;57.54;98918.91;20987204;28;20223;-84
2023/04/13 07:06:40;;;;;;;0.87;0.40;;;;;;;5.84;55.45;98968.44;21004974;28;20183;-80
2023/04/13 07:16:42;;;;;;;1.83;0.40;;;;;;;5.44;56.86;98968.13;20995025;28;20218;-78
2023/04/13 07:26:45;;;;;;;0.83;0.40;;;;;;;5.56;54.80;98989.75;20957094;28;20261;-78
2023/04/13 07:36:47;;;;;;;0.53;0.40;;;;;;;6.22;53.91;99001.84;20970580;28;20223;-78
2023/04/13 07:46:56;;;;;;;1.17;0.70;;;;;;;6.49;52.93;99000.38;20964694;28;20199;-78
2023/04/13 07:57:01;;;;;;;2.20;0.40;;;;;;;6.61;51.76;99025.69;20953864;28;20383;-77
2023/04/13 08:07:06;;;;;;;1.47;0.47;;;;;;;6.54;52.18;99047.84;20969724;28;20253;-77
2023/04/13 08:17:09;;;;;;;2.50;0.30;;;;;;;6.48;52.41;99032.41;20970647;28;20219;-80
2023/04/13 08:27:12;;;;;;;0.37;0.30;;;;;;;6.40;52.90;99052.94;20962191;28;20584;-78
2023/04/13 08:37:15;;;;;;;1.30;0.40;;;;;;;6.20;52.18;99065.81;20985829;28;20249;-85
2023/04/13 08:47:20;;;;;;;1.57;0.60;;;;;;;6.51;52.48;99082.16;20991203;28;20203;-78
2023/04/13 08:57:23;;;;;;;3.43;0.50;;;;;;;5.86;53.68;99100.56;20948911;28;20210;-82
2023/04/13 09:07:29;;;;;;;1.93;0.67;;;;;;;5.97;54.20;99114.97;20965312;28;20187;-77
2023/04/13 09:17:36;;;;;;;2.93;0.63;;;;;;;6.17;53.95;99121.75;20963690;28;20272;-84
2023/04/13 09:27:39;;;;;;;2.07;0.67;;;;;;;6.31;53.24;99134.31;20927884;28;20497;-78
2023/04/13 09:37:43;;;;;;;2.00;0.60;;;;;;;7.26;51.57;99147.34;20962748;28;20219;-82
2023/04/13 09:47:46;;;;;;;3.27;0.70;;;;;;;6.29;57.19;99177.84;20939056;28;20180;-79
2023/04/13 09:57:48;;;;;;;2.87;1.00;;;;;;;6.72;58.84;99178.31;20926578;28;20218;-79
2023/04/13 10:07:50;;;;;;;1.63;1.00;;;;;;;7.56;56.19;99178.88;20952035;28;20203;-79
2023/04/13 10:18:11;;;;;;;5.80;1.00;;;;;;;7.33;55.48;99174.88;20945341;28;20226;-77
2023/04/13 10:28:13;;;;;;;5.43;1.13;;;;;;;8.09;52.10;99183.44;20960944;28;20219;-81
2023/04/13 10:38:16;;;;;;;3.73;0.50;;;;;;;7.69;49.35;99191.78;20929122;28;20219;-76
2023/04/13 10:48:20;;;;;;;2.43;0.43;;;;;;;7.80;49.52;99192.13;20982234;28;20253;-84
2023/04/13 10:58:22;;;;;;;2.77;0.90;;;;;;;7.63;49.85;99212.81;20956507;28;20258;-77
2023/04/13 11:08:26;;;;;;;5.05;1.42;;;;;;;8.09;49.45;99230.41;20954680;28;20608;-79
2023/04/13 11:18:28;;;;;;;5.50;1.03;;;;;;;7.80;49.94;99251.13;20947691;28;20220;-77
2023/04/13 11:28:42;;;;;;;4.47;1.30;;;;;;;8.20;49.23;99253.22;20954642;28;20265;-80
2023/04/13 11:38:46;;;;;;;6.93;1.47;;;;;;;8.59;48.37;99248.81;20916162;28;20264;-76
2023/04/13 11:48:49;;;;;;;7.32;1.65;;;;;;;8.08;47.90;99249.25;20951729;28;20269;-77
2023/04/13 11:58:52;;;;;;;6.43;1.20;;;;;;;8.14;47.10;99264.69;20951945;28;20223;-83
2023/04/13 12:08:59;;;;;;;5.83;1.13;;;;;;;7.14;49.34;99270.81;20927153;28;20222;-79
2023/04/13 12:19:20;;;;;;;5.00;1.20;;;;;;;8.53;46.60;99289.63;20949526;28;20223;-88
2023/04/13 12:29:23;;;;;;;5.05;1.30;;;;;;;8.68;43.04;99291.72;20958042;28;21006;-78
2023/04/13 12:39:26;;;;;;;4.07;1.17;;;;;;;9.18;41.18;99294.84;20943532;28;20631;-81
2023/04/13 12:49:28;;;;;;;3.58;1.00;;;;;;;10.21;39.14;99306.09;20947769;28;20188;-80
2023/04/13 12:59:31;;;;;;;2.50;0.80;;;;;;;10.25;37.87;99309.84;20911383;28;20261;-81
2023/04/13 13:09:33;;;;;;;5.95;1.35;;;;;;;9.84;39.70;99324.47;20948032;28;20184;-81
2023/04/13 13:19:35;;;;;;;6.90;1.20;;;;;;;9.75;39.82;99329.47;20903425;28;20234;-83
2023/04/13 13:29:38;;;;;;;4.03;1.07;;;;;;;9.95;38.19;99341.69;20909248;28;20297;-80
2023/04/13 13:39:41;;;;;;;3.90;1.10;;;;;;;10.04;40.32;99357.25;20915606;28;20247;-82
2023/04/13 13:49:43;;;;;;;5.23;0.90;;;;;;;9.67;40.11;99355.81;20924277;28;20196;-81
2023/04/13 14:00:18;;;;;;;2.47;1.00;;;;;;;10.49;40.12;99344.69;20949885;28;20242;-84
2023/04/13 14:10:20;;;;;;;7.07;1.13;;;;;;;9.71;38.35;99351.09;20931914;28;20610;-83
2023/04/13 14:20:22;;;;;;;4.35;0.93;;;;;;;10.51;37.63;99350.78;20943067;28;20266;-81
2023/04/13 14:30:25;;;;;;;5.20;1.58;;;;;;;11.13;35.65;99354.66;20958594;28;20184;-82
2023/04/13 14:40:30;;;;;;;4.25;1.20;;;;;;;11.21;34.35;99362.94;20933653;28;20219;-82
2023/04/13 14:50:32;;;;;;;4.77;0.90;;;;;;;11.05;31.45;99364.97;20943823;28;20237;-84
2023/04/13 15:00:37;;;;;;;5.55;0.95;;;;;;;11.07;31.30;99361.78;20949370;28;20243;-83
2023/04/13 15:10:41;;;;;;;7.95;1.00;;;;;;;10.18;35.00;99373.72;20922972;28;20217;-81
2023/04/13 15:20:43;;;;;;;6.23;1.10;;;;;;;10.83;33.98;99389.09;20937695;28;20532;-82
2023/04/13 15:30:45;;;;;;;7.40;1.95;;;;;;;10.02;33.35;99384.97;20926274;28;20222;-81
2023/04/13 15:40:47;;;;;;;3.58;0.98;;;;;;;10.41;33.05;99393.66;20942174;28;20639;-84
2023/04/13 15:50:56;;;;;;;3.13;0.70;;;;;;;10.52;30.89;99404.06;20940235;28;20328;-82
2023/04/13 16:01:07;;;;;;;5.45;1.00;;;;;;;10.68;31.33;99409.69;20925155;28;20287;-82
2023/04/13 16:11:10;;;;;;;3.87;0.90;;;;;;;10.14;32.64;99424.38;20930182;28;20244;-83
2023/04/13 16:21:17;;;;;;;5.13;1.00;;;;;;;10.65;31.81;99435.00;20913695;28;20251;-81
2023/04/13 16:31:20;;;;;;;2.92;0.82;;;;;;;10.74;32.27;99450.56;20881636;28;20200;-83
2023/04/13 16:41:22;;;;;;;5.43;0.90;;;;;;;10.08;32.20;99468.16;20880493;28;20212;-81
2023/04/13 16:51:25;;;;;;;5.68;1.15;;;;;;;10.50;34.11;99478.97;20855896;28;20188;-81
2023/04/13 17:01:29;;;;;;;3.80;0.95;;;;;;;10.78;34.13;99485.34;20883248;28;20203;-83
2023/04/13 17:11:32;;;;;;;5.57;1.33;;;;;;;9.98;32.90;99485.56;20892506;28;20204;-81
2023/04/13 17:21:34;;;;;;;9.48;1.40;;;;;;;10.67;31.50;99489.91;20869724;28;20633;-83
2023/04/13 17:31:36;;;;;;;4.77;1.03;;;;;;;10.58;33.20;99509.03;20948628;28;20657;-82
2023/04/13 17:41:40;;;;;;;4.80;0.90;;;;;;;10.35;32.04;99516.41;20954750;28;20195;-83
2023/04/13 17:51:47;;;;;;;4.83;1.33;;;;;;;10.66;32.43;99530.59;20932796;28;20591;-85
2023/04/13 18:01:53;;;;;;;5.67;1.27;;;;;;;10.36;31.86;99549.91;20905758;28;20196;-82
2023/04/13 18:11:55;;;;;;;4.85;1.00;;;;;;;10.45;32.35;99559.03;20919087;28;20684;-83
2023/04/13 18:21:58;;;;;;;6.57;2.23;;;;;;;10.07;34.60;99584.94;20908433;28;20219;-84
2023/04/13 18:32:00;;;;;;;5.57;3.10;;;;;;;9.68;36.52;99597.00;20929535;28;20277;-82
2023/04/13 18:42:02;;;;;;;8.35;2.70;;;;;;;9.47;38.61;99626.09;20910498;28;20524;-83
2023/04/13 18:52:05;;;;;;;4.50;1.42;;;;;;;9.25;39.19;99637.84;20920336;28;20300;-80
2023/04/13 19:02:07;;;;;;;5.50;1.57;;;;;;;8.82;40.28;99649.59;20937483;28;20214;-83
2023/04/13 19:12:09;;;;;;;6.87;1.33;;;;;;;8.55;40.09;99656.59;20934787;28;20332;-81
2023/04/13 19:22:11;;;;;;;9.15;2.92;;;;;;;8.24;42.43;99665.50;20966997;28;20289;-82
2023/04/13 19:32:15;;;;;;;4.33;1.80;;;;;;;8.23;42.82;99675.09;20908846;28;20223;-81
2023/04/13 19:42:18;;;;;;;7.90;2.33;;;;;;;6.67;42.76;99697.41;20952331;28;20744;-82
2023/04/13 19:52:20;;;;;;;6.30;2.00;;;;;;;8.41;39.01;99684.19;20957349;28;20242;-82
2023/04/13 20:02:22;;;;;;;6.27;1.70;;;;;;;8.27;39.36;99681.66;20943475;28;20227;-82
2023/04/13 20:12:24;;;;;;;8.23;2.88;;;;;;;8.05;42.02;99677.19;20948264;28;20326;-82
2023/04/13 20:22:27;;;;;;;4.45;2.03;;;;;;;7.60;41.86;99688.19;20928169;28;20504;-83
2023/04/13 20:32:30;;;;;;;7.33;2.20;;;;;;;7.47;41.45;99691.25;20897212;28;20230;-83
2023/04/13 20:42:33;;;;;;;6.90;2.17;;;;;;;7.13;43.33;99698.63;20946759;28;20191;-81
2023/04/13 20:52:35;;;;;;;5.30;1.80;;;;;;;6.99;45.32;99703.59;20914551;28;20228;-82
2023/04/13 21:02:38;;;;;;;5.90;2.07;;;;;;;7.25;43.52;99709.97;20921552;28;20208;-82
2023/04/13 21:12:41;;;;;;;6.20;1.60;;;;;;;6.90;44.72;99717.66;20926227;28;20525;-82
2023/04/13 21:22:43;;;;;;;6.60;1.77;;;;;;;6.48;44.76;99719.31;20899872;28;20306;-81
2023/04/13 21:32:45;;;;;;;4.13;1.83;;;;;;;6.49;43.75;99726.56;20915686;28;20685;-83
2023/04/13 21:42:48;;;;;;;5.47;1.50;;;;;;;6.32;42.96;99740.56;20938112;28;20552;-82
2023/04/13 21:52:50;;;;;;;7.80;1.93;;;;;;;6.86;41.05;99743.91;20890704;28;20227;-80
2023/04/13 22:02:54;;;;;;;9.53;2.33;;;;;;;7.16;40.58;99745.66;20892696;28;20199;-82
2023/04/13 22:12:56;;;;;;;5.47;1.37;;;;;;;6.98;41.57;99752.47;20938830;28;20210;-82
2023/04/13 22:22:58;;;;;;;6.70;1.67;;;;;;;6.89;41.23;99763.72;20946792;28;20223;-82
2023/04/13 22:33:00;;;;;;;4.03;1.30;;;;;;;7.03;42.61;99771.94;20915613;28;20550;-81
2023/04/13 22:43:02;;;;;;;3.38;1.20;;;;;;;6.82;41.95;99768.19;20917218;28;20922;-81
2023/04/13 22:53:05;;;;;;;4.13;1.47;;;;;;;6.82;42.34;99779.41;20935313;28;20515;-82
2023/04/13 23:03:07;;;;;;;2.60;1.10;;;;;;;6.62;42.60;99783.69;20938126;28;20195;-81
2023/04/13 23:13:09;;;;;;;2.70;0.90;;;;;;;6.73;42.23;99774.59;20945296;28;20262;-82
2023/04/13 23:23:11;;;;;;;5.80;1.00;;;;;;;6.48;44.38;99786.59;20892435;28;20231;-81
2023/04/13 23:33:14;;;;;;;5.43;1.40;;;;;;;6.69;42.37;99784.84;20889165;28;20673;-82
2023/04/13 23:43:16;;;;;;;5.40;1.97;;;;;;;6.13;44.74;99782.91;20870030;28;20253;-81
2023/04/13 23:53:18;;;;;;;8.97;3.10;;;;;;;6.97;42.38;99776.06;20835503;28;20270;-81
